createdAt,value
2022-08-31T00:02:38.937Z,97572.09
2022-08-31T00:05:05.794Z,97575.53
2022-08-31T00:07:34.825Z,97561.81
2022-08-31T00:10:04.115Z,97566.09
2022-08-31T00:12:30.628Z,97572.97
2022-08-31T00:14:57.403Z,97563.56
2022-08-31T00:17:24.016Z,97566.16
2022-08-31T00:19:50.560Z,97560.13
2022-08-31T00:22:17.115Z,97563.56
2022-08-31T00:24:43.637Z,97570.44
2022-08-31T00:27:10.255Z,97556.72
2022-08-31T00:29:36.811Z,97558.44
2022-08-31T00:32:03.602Z,97558.44
2022-08-31T00:34:30.745Z,97548.13
2022-08-31T00:36:57.325Z,97550.72
2022-08-31T00:39:23.849Z,97554.13
2022-08-31T00:41:51.261Z,97550.69
2022-08-31T00:44:17.809Z,97560.09
2022-08-31T00:46:44.374Z,97557.53
2022-08-31T00:49:14.725Z,97498.72
2022-08-31T00:52:00.529Z,97559.25
2022-08-31T00:54:31.152Z,97559.22
2022-08-31T00:56:57.694Z,97553.22
2022-08-31T00:59:24.464Z,97548.91
2022-08-31T01:01:51.097Z,97540.34
2022-08-31T01:04:17.747Z,97538.63
2022-08-31T01:06:44.380Z,97535.19
2022-08-31T01:09:10.960Z,97542.03
2022-08-31T01:11:37.777Z,97542.03
2022-08-31T01:14:04.348Z,97533.47
2022-08-31T01:16:39.404Z,97547.16
2022-08-31T01:19:07.773Z,97551.44
2022-08-31T01:21:48.833Z,97551.41
2022-08-31T01:24:15.421Z,97545.41
2022-08-31T01:26:41.999Z,97539.38
2022-08-31T01:29:08.824Z,97549.66
2022-08-31T01:31:42.790Z,97548.81
2022-08-31T01:34:09.544Z,97547.94
2022-08-31T01:36:37.033Z,97528.09
2022-08-31T01:39:05.313Z,97540.22
2022-08-31T01:41:31.866Z,97544.44
2022-08-31T01:43:58.457Z,97546.22
2022-08-31T01:46:25.243Z,97551.34
2022-08-31T01:48:52.449Z,97541.91
2022-08-31T01:51:20.437Z,97545.34
2022-08-31T01:53:48.538Z,97542.78
2022-08-31T01:56:18.075Z,97546.22
2022-08-31T01:58:45.108Z,97537.66
2022-08-31T02:01:33.043Z,97532.53
2022-08-31T02:03:58.599Z,97535.97
2022-08-31T02:06:25.362Z,97539.38
2022-08-31T02:08:51.914Z,97541.13
2022-08-31T02:11:18.508Z,97533.41
2022-08-31T02:13:45.304Z,97530.88
2022-08-31T02:16:11.883Z,97534.25
2022-08-31T02:18:38.463Z,97529.09
2022-08-31T02:21:05.412Z,97531.72
2022-08-31T02:23:31.974Z,97536.84
2022-08-31T02:25:58.544Z,97533.44
2022-08-31T02:28:25.144Z,97538.63
2022-08-31T02:30:51.680Z,97529.16
2022-08-31T02:33:18.492Z,97537.75
2022-08-31T02:35:45.174Z,97536.06
2022-08-31T02:38:11.814Z,97529.19
2022-08-31T02:40:39.139Z,97533.53
2022-08-31T02:43:09.158Z,97538.66
2022-08-31T02:45:39.325Z,97535.22
2022-08-31T02:48:06.253Z,97537.78
2022-08-31T02:50:32.933Z,97531.78
2022-08-31T02:52:59.581Z,97531.78
2022-08-31T02:55:26.740Z,97529.22
2022-08-31T02:57:53.325Z,97524.06
2022-08-31T03:00:21.179Z,97525.81
2022-08-31T03:02:48.476Z,97532.66
2022-08-31T03:05:15.079Z,97530.97
2022-08-31T03:07:41.632Z,97533.53
2022-08-31T03:10:10.007Z,97529.25
2022-08-31T03:12:36.636Z,97524.94
2022-08-31T03:15:04.177Z,97531.84
2022-08-31T03:17:30.725Z,97537.00
2022-08-31T03:20:02.703Z,97534.41
2022-08-31T03:22:29.518Z,97535.28
2022-08-31T03:24:56.181Z,97536.16
2022-08-31T03:27:24.624Z,97538.72
2022-08-31T03:29:52.089Z,97545.56
2022-08-31T03:32:19.235Z,97543.00
2022-08-31T03:34:45.805Z,97549.03
2022-08-31T03:37:12.436Z,97537.00
2022-08-31T03:39:39.042Z,97542.16
2022-08-31T03:42:06.911Z,97537.81
2022-08-31T03:44:33.748Z,97540.44
2022-08-31T03:47:00.409Z,97525.78
2022-08-31T03:49:27.006Z,97543.91
2022-08-31T03:51:53.532Z,97548.19
2022-08-31T03:54:20.099Z,97541.31
2022-08-31T03:56:46.921Z,97554.19
2022-08-31T03:59:13.713Z,97551.63
2022-08-31T04:01:40.394Z,97553.34
2022-08-31T04:04:07.012Z,97551.63
2022-08-31T04:06:33.618Z,97549.84
2022-08-31T04:09:00.144Z,97554.16
2022-08-31T04:11:44.700Z,97557.59
2022-08-31T04:14:12.586Z,97561.91
2022-08-31T04:16:43.651Z,97562.75
2022-08-31T04:19:11.301Z,97562.72
2022-08-31T04:21:38.082Z,97560.16
2022-08-31T04:24:04.654Z,97570.44
2022-08-31T04:26:35.467Z,97578.16
2022-08-31T04:29:04.419Z,97569.59
2022-08-31T04:31:31.008Z,97582.44
2022-08-31T04:33:57.686Z,97576.44
2022-08-31T04:36:25.506Z,97569.59
2022-08-31T04:38:53.602Z,97560.06
2022-08-31T04:41:22.144Z,97578.16
2022-08-31T04:43:50.556Z,97567.88
2022-08-31T04:46:18.117Z,97579.88
2022-08-31T04:48:44.764Z,97574.75
2022-08-31T04:51:16.032Z,97560.06
2022-08-31T04:53:42.636Z,97573.00
2022-08-31T04:56:20.808Z,97567.03
2022-08-31T04:58:52.964Z,97570.47
2022-08-31T05:01:24.379Z,97560.16
2022-08-31T05:03:53.334Z,97566.16
2022-08-31T05:06:22.938Z,97559.31
2022-08-31T05:08:56.567Z,97523.84
2022-08-31T05:11:25.110Z,97555.81
2022-08-31T05:13:52.828Z,97555.84
2022-08-31T05:16:19.667Z,97557.56
2022-08-31T05:18:47.411Z,97561.03
2022-08-31T05:21:20.223Z,97564.47
2022-08-31T05:23:47.271Z,97563.59
2022-08-31T05:26:18.468Z,97568.75
2022-08-31T05:28:46.105Z,97570.47
2022-08-31T05:31:12.887Z,97568.75
2022-08-31T05:33:39.475Z,97570.47
2022-08-31T05:36:06.259Z,97563.56
2022-08-31T05:38:34.852Z,97570.47
2022-08-31T05:41:02.190Z,97571.34
2022-08-31T05:43:28.943Z,97579.91
2022-08-31T05:45:55.703Z,97583.31
2022-08-31T05:48:22.265Z,97585.91
2022-08-31T05:50:56.388Z,97591.06
2022-08-31T05:53:22.939Z,97591.91
2022-08-31T05:55:49.468Z,97590.19
2022-08-31T05:58:16.003Z,97592.78
2022-08-31T06:00:42.727Z,97591.88
2022-08-31T06:03:09.283Z,97587.66
2022-08-31T06:05:35.879Z,97589.34
2022-08-31T06:08:02.700Z,97585.03
2022-08-31T06:10:29.292Z,97595.34
2022-08-31T06:12:55.944Z,97597.03
2022-08-31T06:15:22.491Z,97599.56
2022-08-31T06:17:49.056Z,97603.03
2022-08-31T06:20:18.011Z,97606.41
2022-08-31T06:22:46.553Z,97604.66
2022-08-31T06:25:17.557Z,97602.94
2022-08-31T06:27:44.464Z,97607.25
2022-08-31T06:30:11.335Z,97599.44
2022-08-31T06:32:37.865Z,97607.16
2022-08-31T06:35:04.620Z,97608.91
2022-08-31T06:37:31.216Z,97605.44
2022-08-31T06:39:57.740Z,97611.44
2022-08-31T06:42:24.294Z,97606.28
2022-08-31T06:44:51.027Z,97612.19
2022-08-31T06:47:23.478Z,97614.84
2022-08-31T06:49:50.824Z,97610.50
2022-08-31T06:52:17.462Z,97624.25
2022-08-31T06:54:44.052Z,97629.34
2022-08-31T06:57:10.605Z,97627.63
2022-08-31T06:59:37.148Z,97619.91
2022-08-31T07:02:03.951Z,97626.75
2022-08-31T07:04:35.060Z,97632.72
2022-08-31T07:07:01.808Z,97629.25
2022-08-31T07:09:28.520Z,97630.06
2022-08-31T07:11:55.083Z,97630.97
2022-08-31T07:14:24.070Z,97641.25
2022-08-31T07:16:51.515Z,97633.53
2022-08-31T07:19:18.134Z,97638.66
2022-08-31T07:21:46.464Z,97642.94
2022-08-31T07:24:14.265Z,97654.06
2022-08-31T07:26:45.305Z,97653.19
2022-08-31T07:29:14.369Z,97654.88
2022-08-31T07:31:46.195Z,97648.84
2022-08-31T07:34:14.505Z,97654.81
2022-08-31T07:36:59.975Z,97653.94
2022-08-31T07:39:45.781Z,97650.44
2022-08-31T07:42:13.395Z,97662.53
2022-08-31T07:44:42.833Z,97641.75
2022-08-31T07:47:20.397Z,97655.69
2022-08-31T07:49:51.306Z,97627.09
2022-08-31T07:52:23.723Z,97659.91
2022-08-31T07:54:51.106Z,97659.91
2022-08-31T07:57:18.949Z,97667.63
2022-08-31T07:59:47.199Z,97656.50
2022-08-31T08:02:17.393Z,97650.47
2022-08-31T08:04:44.347Z,97650.47
2022-08-31T08:07:11.744Z,97617.50
2022-08-31T08:09:38.844Z,97657.31
2022-08-31T08:12:08.510Z,97650.41
2022-08-31T08:14:39.032Z,97663.31
2022-08-31T08:17:08.445Z,97658.13
2022-08-31T08:19:35.040Z,97661.53
2022-08-31T08:22:02.909Z,97667.53
2022-08-31T08:24:31.678Z,97668.38
2022-08-31T08:26:58.712Z,97660.63
2022-08-31T08:29:26.761Z,97676.13
2022-08-31T08:31:56.019Z,97670.13
2022-08-31T08:34:27.148Z,97669.28
2022-08-31T08:36:59.353Z,97671.88
2022-08-31T08:39:25.915Z,97670.13
2022-08-31T08:41:52.453Z,97653.69
2022-08-31T08:44:20.034Z,97666.69
2022-08-31T08:47:15.075Z,97653.69
2022-08-31T08:49:54.535Z,97671.00
2022-08-31T08:52:31.416Z,97674.41
2022-08-31T08:55:03.523Z,97667.44
2022-08-31T08:57:31.966Z,97672.69
2022-08-31T09:00:01.026Z,97669.25
2022-08-31T09:02:33.546Z,97677.81
2022-08-31T09:05:26.354Z,97676.94
2022-08-31T09:08:02.018Z,97688.97
2022-08-31T09:10:28.629Z,97692.41
2022-08-31T09:13:09.824Z,97691.56
2022-08-31T09:15:54.778Z,97697.53
2022-08-31T09:18:47.100Z,97689.78
2022-08-31T09:21:21.629Z,97695.81
2022-08-31T09:24:04.027Z,97700.94
2022-08-31T09:26:32.791Z,97704.38
2022-08-31T09:29:03.999Z,97698.38
2022-08-31T09:31:37.345Z,97699.22
2022-08-31T09:34:09.333Z,97685.28
2022-08-31T09:36:41.263Z,97704.34
2022-08-31T09:39:18.427Z,97697.53
2022-08-31T09:41:45.601Z,97698.38
2022-08-31T09:44:17.840Z,97700.97
2022-08-31T09:46:53.978Z,97701.84
2022-08-31T09:49:22.363Z,97706.13
2022-08-31T09:51:49.519Z,97701.00
2022-08-31T09:54:34.418Z,97699.25
2022-08-31T09:57:02.791Z,97703.56
2022-08-31T09:59:47.859Z,97696.66
2022-08-31T10:02:26.567Z,97707.00
2022-08-31T10:05:01.314Z,97699.28
2022-08-31T10:07:45.388Z,97699.28
2022-08-31T10:10:30.061Z,97698.44
2022-08-31T10:13:07.474Z,97701.91
2022-08-31T10:15:53.041Z,97694.06
2022-08-31T10:18:33.681Z,97714.75
2022-08-31T10:21:07.769Z,97707.00
2022-08-31T10:23:44.995Z,97701.00
2022-08-31T10:26:16.531Z,97690.50
2022-08-31T10:28:54.495Z,97704.44
2022-08-31T10:31:31.598Z,97710.47
2022-08-31T10:34:25.960Z,97698.31
2022-08-31T10:36:58.780Z,97713.03
2022-08-31T10:39:28.892Z,97714.72
2022-08-31T10:41:55.427Z,97706.97
2022-08-31T10:44:39.324Z,97713.84
2022-08-31T10:47:06.043Z,97697.44
2022-08-31T10:49:35.458Z,97711.28
2022-08-31T10:52:17.249Z,97712.16
2022-08-31T10:55:16.655Z,97714.72
2022-08-31T10:57:56.413Z,97720.75
2022-08-31T11:00:48.521Z,97724.16
2022-08-31T11:03:30.294Z,97728.44
2022-08-31T11:06:05.037Z,97725.03
2022-08-31T11:08:49.903Z,97726.72
2022-08-31T11:11:43.741Z,97718.91
2022-08-31T11:14:29.192Z,97730.16
2022-08-31T11:17:12.043Z,97721.59
2022-08-31T11:20:03.859Z,97725.03
2022-08-31T11:23:02.882Z,97731.06
2022-08-31T11:25:48.107Z,97720.78
2022-08-31T11:28:33.950Z,97730.16
2022-08-31T11:31:02.144Z,97721.50
2022-08-31T11:33:28.858Z,97726.69
2022-08-31T11:36:06.755Z,97737.03
2022-08-31T11:38:54.424Z,97732.78
2022-08-31T11:41:44.696Z,97730.19
2022-08-31T11:44:11.284Z,97730.19
2022-08-31T11:46:37.994Z,97736.22
2022-08-31T11:49:07.824Z,97731.06
2022-08-31T11:51:40.899Z,97742.22
2022-08-31T11:54:36.231Z,97743.06
2022-08-31T11:57:03.302Z,97744.72
2022-08-31T11:59:35.479Z,97744.78
2022-08-31T12:02:26.022Z,97749.09
2022-08-31T12:04:53.377Z,97748.22
2022-08-31T12:07:31.073Z,97750.81
2022-08-31T12:10:03.888Z,97745.63
2022-08-31T12:12:39.346Z,97743.03
2022-08-31T12:15:31.831Z,97742.25
2022-08-31T12:18:17.260Z,97757.66
2022-08-31T12:21:11.281Z,97745.69
2022-08-31T12:23:56.392Z,97756.84
2022-08-31T12:26:53.856Z,97744.63
2022-08-31T12:29:23.382Z,97755.97
2022-08-31T12:32:25.574Z,97762.00
2022-08-31T12:35:19.183Z,97762.03
2022-08-31T12:37:45.934Z,97755.00
2022-08-31T12:40:21.151Z,97766.28
2022-08-31T12:42:49.028Z,97756.81
2022-08-31T12:45:15.584Z,97742.03
2022-08-31T12:47:41.991Z,97755.13
2022-08-31T12:50:23.825Z,97749.94
2022-08-31T12:53:05.086Z,97751.72
2022-08-31T12:56:03.648Z,97754.28
2022-08-31T12:58:42.350Z,97757.69
2022-08-31T13:01:12.504Z,97745.50
2022-08-31T13:03:40.548Z,97743.81
2022-08-31T13:06:09.520Z,97654.53
2022-08-31T13:08:42.889Z,97755.97
2022-08-31T13:11:41.245Z,97756.03
2022-08-31T13:14:16.230Z,97748.22
2022-08-31T13:16:45.294Z,97756.06
2022-08-31T13:19:23.562Z,97741.41
2022-08-31T13:21:57.937Z,97750.03
2022-08-31T13:24:30.494Z,97752.66
2022-08-31T13:27:17.729Z,97749.22
2022-08-31T13:29:45.306Z,97738.91
2022-08-31T13:32:30.699Z,97750.06
2022-08-31T13:35:04.091Z,97740.53
2022-08-31T13:37:33.775Z,97737.00
2022-08-31T13:40:09.933Z,97749.25
2022-08-31T13:42:43.781Z,97752.66
2022-08-31T13:45:26.571Z,97750.09
2022-08-31T13:47:58.360Z,97750.91
2022-08-31T13:50:31.388Z,97744.97
2022-08-31T13:53:25.411Z,97757.00
2022-08-31T13:55:48.709Z,97749.22
2022-08-31T13:58:31.409Z,97728.38
2022-08-31T14:01:20.006Z,97755.28
2022-08-31T14:03:58.838Z,97754.41
2022-08-31T14:06:30.699Z,97753.53
2022-08-31T14:09:05.125Z,97753.59
2022-08-31T14:11:32.222Z,97756.94
2022-08-31T14:14:06.095Z,97752.66
2022-08-31T14:16:38.235Z,97742.31
2022-08-31T14:19:04.974Z,97752.72
2022-08-31T14:21:35.957Z,97750.16
2022-08-31T14:24:03.531Z,97752.75
2022-08-31T14:26:35.013Z,97757.06
2022-08-31T14:29:04.028Z,97748.50
2022-08-31T14:31:37.126Z,97753.63
2022-08-31T14:34:24.789Z,97747.63
2022-08-31T14:37:06.894Z,97743.34
2022-08-31T14:39:45.991Z,97750.19
2022-08-31T14:42:17.371Z,97739.06
2022-08-31T14:44:56.522Z,97748.50
2022-08-31T14:47:27.714Z,97739.91
2022-08-31T14:49:58.795Z,97737.34
2022-08-31T14:52:28.432Z,97745.06
2022-08-31T14:54:59.353Z,97740.78
2022-08-31T14:57:26.091Z,97740.78
2022-08-31T14:59:57.408Z,97717.56
2022-08-31T15:02:24.794Z,97727.00
2022-08-31T15:04:51.668Z,97724.41
2022-08-31T15:07:18.711Z,97730.50
2022-08-31T15:09:47.850Z,97718.41
2022-08-31T15:12:16.717Z,97730.50
2022-08-31T15:14:44.969Z,97729.63
2022-08-31T15:17:13.056Z,97738.22
2022-08-31T15:19:45.981Z,97741.66
2022-08-31T15:22:12.836Z,97736.47
2022-08-31T15:24:45.400Z,97736.41
2022-08-31T15:27:14.377Z,97749.34
2022-08-31T15:29:42.044Z,97752.78
2022-08-31T15:32:14.296Z,97680.78
2022-08-31T15:34:40.933Z,97760.50
2022-08-31T15:37:07.531Z,97756.25
2022-08-31T15:39:37.229Z,97750.22
2022-08-31T15:42:08.113Z,97733.84
2022-08-31T15:44:42.164Z,97745.06
2022-08-31T15:47:28.396Z,97751.09
2022-08-31T15:49:56.136Z,97756.25
2022-08-31T15:52:27.550Z,97745.84
2022-08-31T15:54:54.392Z,97752.78
2022-08-31T15:57:23.798Z,97739.94
2022-08-31T15:59:50.360Z,97744.22
2022-08-31T16:02:20.463Z,97721.72
2022-08-31T16:04:48.549Z,97716.66
2022-08-31T16:07:15.164Z,97729.66
2022-08-31T16:09:45.285Z,97731.38
2022-08-31T16:12:15.806Z,97721.94
2022-08-31T16:14:45.032Z,97715.88
2022-08-31T16:17:14.395Z,97722.78
2022-08-31T16:19:41.104Z,97716.75
2022-08-31T16:22:08.728Z,97715.91
2022-08-31T16:24:38.040Z,97716.78
2022-08-31T16:27:06.379Z,97713.38
2022-08-31T16:29:33.013Z,97715.94
2022-08-31T16:32:00.275Z,97713.38
2022-08-31T16:34:27.010Z,97711.66
2022-08-31T16:36:53.577Z,97706.50
2022-08-31T16:39:20.155Z,97703.09
2022-08-31T16:41:46.753Z,97706.50
2022-08-31T16:44:20.031Z,97711.66
2022-08-31T16:46:47.013Z,97691.72
2022-08-31T16:49:32.242Z,97715.09
2022-08-31T16:52:00.631Z,97706.41
2022-08-31T16:54:28.564Z,97731.41
2022-08-31T16:56:57.631Z,97719.34
2022-08-31T16:59:28.558Z,97721.75
2022-08-31T17:01:55.238Z,97721.81
2022-08-31T17:04:48.150Z,97741.69
2022-08-31T17:07:10.699Z,97739.13
2022-08-31T17:09:38.078Z,97740.81
2022-08-31T17:12:07.630Z,97730.25
2022-08-31T17:14:35.983Z,97726.94
2022-08-31T17:17:05.714Z,97729.50
2022-08-31T17:19:36.484Z,97740.78
2022-08-31T17:22:04.803Z,97741.66
2022-08-31T17:24:38.695Z,97754.53
2022-08-31T17:27:09.386Z,97763.03
2022-08-31T17:29:43.557Z,97767.38
2022-08-31T17:32:12.676Z,97772.53
2022-08-31T17:34:39.312Z,97768.22
2022-08-31T17:37:16.193Z,97765.66
2022-08-31T17:39:43.403Z,97744.00
2022-08-31T17:42:10.031Z,97755.38
2022-08-31T17:44:37.716Z,97759.66
2022-08-31T17:47:05.358Z,97751.94
2022-08-31T17:49:36.537Z,97760.50
2022-08-31T17:52:07.842Z,97735.44
2022-08-31T17:54:35.188Z,97757.09
2022-08-31T17:57:02.619Z,97756.97
2022-08-31T17:59:34.369Z,97769.09
2022-08-31T18:02:04.310Z,97768.22
2022-08-31T18:04:31.131Z,97766.53
2022-08-31T18:06:57.736Z,97768.22
2022-08-31T18:09:26.039Z,97759.66
2022-08-31T18:11:53.457Z,97760.38
2022-08-31T18:14:24.525Z,97775.13
2022-08-31T18:16:51.890Z,97777.69
2022-08-31T18:19:27.825Z,97779.38
2022-08-31T18:21:57.657Z,97781.06
2022-08-31T18:24:24.302Z,97790.56
2022-08-31T18:26:51.100Z,97791.41
2022-08-31T18:29:21.509Z,97778.38
2022-08-31T18:31:52.779Z,97792.25
2022-08-31T18:34:22.014Z,97774.84
2022-08-31T18:36:49.694Z,97796.53
2022-08-31T18:39:34.768Z,97793.97
2022-08-31T18:42:26.926Z,97799.97
2022-08-31T18:45:11.903Z,97800.84
2022-08-31T18:47:38.481Z,97805.97
2022-08-31T18:50:05.810Z,97794.72
2022-08-31T18:52:32.445Z,97801.66
2022-08-31T18:54:59.163Z,97805.97
2022-08-31T18:57:26.747Z,97805.97
2022-08-31T18:59:53.417Z,97806.72
2022-08-31T19:02:21.228Z,97812.81
2022-08-31T19:04:48.009Z,97824.81
2022-08-31T19:07:15.361Z,97818.84
2022-08-31T19:09:42.091Z,97808.50
2022-08-31T19:12:08.719Z,97818.84
2022-08-31T19:14:36.280Z,97818.84
2022-08-31T19:17:04.551Z,97787.72
2022-08-31T19:19:31.536Z,97812.81
2022-08-31T19:21:58.270Z,97811.97
2022-08-31T19:24:24.967Z,97807.66
2022-08-31T19:26:56.021Z,97810.25
2022-08-31T19:29:25.594Z,97809.38
2022-08-31T19:31:53.225Z,97802.53
2022-08-31T19:34:22.514Z,97810.25
2022-08-31T19:36:53.899Z,97802.53
2022-08-31T19:39:22.962Z,97801.66
2022-08-31T19:41:50.793Z,97794.81
2022-08-31T19:44:17.516Z,97800.84
2022-08-31T19:46:52.465Z,97786.97
2022-08-31T19:49:19.453Z,97804.22
2022-08-31T19:51:51.769Z,97805.09
2022-08-31T19:54:19.336Z,97803.38
2022-08-31T19:56:46.185Z,97805.97
2022-08-31T19:59:18.323Z,97801.66
2022-08-31T20:01:47.625Z,97811.94
2022-08-31T20:04:16.806Z,97795.53
2022-08-31T20:06:45.254Z,97800.78
2022-08-31T20:09:12.238Z,97804.22
2022-08-31T20:11:38.979Z,97799.09
2022-08-31T20:14:06.064Z,97802.53
2022-08-31T20:16:35.335Z,97797.28
2022-08-31T20:19:04.798Z,97801.66
2022-08-31T20:21:32.747Z,97783.53
2022-08-31T20:24:01.856Z,97787.84
2022-08-31T20:26:33.172Z,97784.38
2022-08-31T20:29:06.725Z,97797.38
2022-08-31T20:31:33.410Z,97781.72
2022-08-31T20:34:01.366Z,97800.84
2022-08-31T20:36:30.022Z,97796.50
2022-08-31T20:39:01.076Z,97799.09
2022-08-31T20:41:32.073Z,97799.75
2022-08-31T20:44:10.428Z,97792.94
2022-08-31T20:47:02.136Z,97781.81
2022-08-31T20:49:29.701Z,97800.81
2022-08-31T20:51:56.859Z,97794.78
2022-08-31T20:54:23.923Z,97792.22
2022-08-31T20:56:51.729Z,97805.06
2022-08-31T20:59:22.823Z,97799.03
2022-08-31T21:01:55.217Z,97791.22
2022-08-31T21:04:22.936Z,97784.22
2022-08-31T21:06:49.586Z,97805.03
2022-08-31T21:09:16.135Z,97803.34
2022-08-31T21:11:43.777Z,97799.84
2022-08-31T21:14:11.485Z,97789.53
2022-08-31T21:16:40.377Z,97792.94
2022-08-31T21:19:14.453Z,97797.31
2022-08-31T21:21:41.669Z,97768.69
2022-08-31T21:24:09.873Z,97801.59
2022-08-31T21:26:39.647Z,97802.47
2022-08-31T21:29:06.848Z,97802.47
2022-08-31T21:31:33.443Z,97802.47
2022-08-31T21:34:01.378Z,97799.88
2022-08-31T21:36:28.820Z,97803.31
2022-08-31T21:38:56.798Z,97804.16
2022-08-31T21:41:25.552Z,97805.88
2022-08-31T21:43:52.214Z,97800.75
2022-08-31T21:46:23.351Z,97802.44
2022-08-31T21:48:51.072Z,97797.28
2022-08-31T21:51:17.520Z,97799.88
2022-08-31T21:53:45.850Z,97796.41
2022-08-31T21:56:12.507Z,97795.59
2022-08-31T21:58:39.131Z,97797.28
2022-08-31T22:01:07.962Z,97799.88
2022-08-31T22:03:36.111Z,97796.41
2022-08-31T22:06:07.275Z,97800.72
2022-08-31T22:08:34.843Z,97803.31
2022-08-31T22:11:01.451Z,97802.44
2022-08-31T22:13:28.081Z,97801.56
2022-08-31T22:15:57.046Z,97805.00
2022-08-31T22:18:59.830Z,97796.41
2022-08-31T22:21:16.182Z,97804.06
2022-08-31T22:23:43.680Z,97817.00
2022-08-31T22:26:10.480Z,97815.28
2022-08-31T22:28:37.194Z,97812.72
2022-08-31T22:31:03.809Z,97809.28
2022-08-31T22:33:31.082Z,97809.28
2022-08-31T22:35:57.631Z,97815.28
2022-08-31T22:38:24.733Z,97814.41
2022-08-31T22:40:51.342Z,97815.25
2022-08-31T22:43:17.966Z,97814.38
2022-08-31T22:45:48.466Z,97811.00
2022-08-31T22:48:15.372Z,97808.44
2022-08-31T22:50:42.016Z,97808.44
2022-08-31T22:53:08.568Z,97803.25
2022-08-31T22:55:38.362Z,97802.41
2022-08-31T22:58:05.136Z,97796.38
2022-08-31T23:00:34.671Z,97801.53
2022-08-31T23:03:01.682Z,97796.38
2022-08-31T23:05:28.245Z,97797.25
2022-08-31T23:07:54.951Z,97796.34
2022-08-31T23:10:23.735Z,97792.97
2022-08-31T23:12:55.854Z,97799.88
2022-08-31T23:15:22.912Z,97794.69
2022-08-31T23:17:51.354Z,97791.25
2022-08-31T23:20:20.972Z,97791.25
2022-08-31T23:22:48.205Z,97788.66
2022-08-31T23:25:18.538Z,97785.25
2022-08-31T23:27:45.937Z,97786.13
2022-08-31T23:30:13.855Z,97783.53
2022-08-31T23:32:44.605Z,97783.56
2022-08-31T23:35:17.789Z,97775.81
2022-08-31T23:37:44.421Z,97778.38
2022-08-31T23:40:12.294Z,97780.13
2022-08-31T23:42:41.936Z,97777.53
2022-08-31T23:45:09.995Z,97772.41
2022-08-31T23:47:37.189Z,97768.06
2022-08-31T23:50:08.002Z,97771.53
2022-08-31T23:52:37.594Z,97767.25
2022-08-31T23:55:04.372Z,97759.53
2022-08-31T23:57:33.196Z,97762.97
